createdAt,value
2022-08-17T00:00:43.147Z,5.30
2022-08-17T00:03:13.662Z,5.30
2022-08-17T00:05:45.471Z,5.20
2022-08-17T00:08:17.413Z,5.50
2022-08-17T00:10:47.561Z,5.67
2022-08-17T00:13:24.014Z,5.77
2022-08-17T00:15:53.377Z,5.67
2022-08-17T00:19:06.566Z,5.40
2022-08-17T00:21:11.739Z,5.67
2022-08-17T00:23:49.115Z,5.63
2022-08-17T00:26:43.621Z,5.30
2022-08-17T00:29:08.619Z,4.87
2022-08-17T00:31:37.646Z,4.77
2022-08-17T00:34:08.829Z,5.07
2022-08-17T00:36:38.344Z,5.07
2022-08-17T00:39:08.070Z,4.97
2022-08-17T00:41:36.774Z,5.30
2022-08-17T00:44:12.392Z,5.20
2022-08-17T00:46:45.569Z,5.63
2022-08-17T00:49:16.440Z,6.17
2022-08-17T00:51:49.709Z,5.23
2022-08-17T00:54:23.713Z,5.60
2022-08-17T00:56:55.154Z,6.30
2022-08-17T00:59:27.089Z,5.67
2022-08-17T01:01:55.753Z,5.50
2022-08-17T01:04:24.831Z,6.27
2022-08-17T01:06:54.353Z,5.90
2022-08-17T01:09:24.191Z,6.33
2022-08-17T01:11:53.134Z,6.03
2022-08-17T01:14:22.420Z,6.23
2022-08-17T01:16:52.665Z,5.50
2022-08-17T01:19:24.836Z,6.57
2022-08-17T01:21:59.942Z,6.57
2022-08-17T01:24:30.877Z,6.00
2022-08-17T01:27:02.132Z,6.40
2022-08-17T01:29:32.850Z,6.33
2022-08-17T01:32:04.837Z,6.60
2022-08-17T01:34:42.953Z,5.60
2022-08-17T01:37:12.813Z,6.20
2022-08-17T01:39:46.692Z,6.77
2022-08-17T01:42:25.504Z,6.63
2022-08-17T01:44:59.100Z,6.07
2022-08-17T01:47:27.540Z,6.23
2022-08-17T01:49:58.158Z,6.63
2022-08-17T01:52:26.402Z,6.30
2022-08-17T01:54:56.740Z,5.97
2022-08-17T01:57:25.016Z,6.47
2022-08-17T01:59:53.333Z,6.10
2022-08-17T02:02:30.447Z,6.77
2022-08-17T02:05:00.480Z,6.20
2022-08-17T02:07:29.260Z,6.30
2022-08-17T02:09:59.589Z,5.53
2022-08-17T02:12:38.840Z,5.77
2022-08-17T02:15:12.511Z,6.07
2022-08-17T02:17:41.757Z,6.23
2022-08-17T02:20:11.629Z,5.90
2022-08-17T02:22:41.956Z,6.17
2022-08-17T02:25:14.281Z,5.60
2022-08-17T02:27:42.680Z,5.63
2022-08-17T02:30:59.513Z,6.07
2022-08-17T02:33:04.226Z,6.17
2022-08-17T02:35:34.597Z,5.73
2022-08-17T02:38:03.039Z,5.60
2022-08-17T02:40:36.363Z,5.63
2022-08-17T02:43:05.428Z,6.10
2022-08-17T02:45:33.927Z,6.67
2022-08-17T02:48:02.385Z,5.83
2022-08-17T02:50:30.879Z,6.87
2022-08-17T02:53:02.585Z,6.17
2022-08-17T02:55:37.106Z,6.13
2022-08-17T02:58:06.303Z,5.93
2022-08-17T03:00:36.990Z,6.23
2022-08-17T03:03:07.424Z,5.63
2022-08-17T03:05:37.561Z,6.37
2022-08-17T03:08:07.312Z,5.43
2022-08-17T03:10:43.628Z,5.47
2022-08-17T03:13:14.459Z,5.80
2022-08-17T03:15:45.369Z,5.87
2022-08-17T03:18:24.523Z,6.53
2022-08-17T03:20:56.076Z,6.23
2022-08-17T03:23:25.300Z,5.60
2022-08-17T03:25:56.523Z,4.83
2022-08-17T03:28:25.514Z,5.37
2022-08-17T03:30:54.366Z,5.80
2022-08-17T03:33:23.355Z,5.23
2022-08-17T03:35:51.891Z,5.50
2022-08-17T03:38:20.500Z,5.97
2022-08-17T03:40:57.226Z,5.87
2022-08-17T03:43:30.605Z,5.30
2022-08-17T03:46:29.040Z,5.43
2022-08-17T03:49:22.878Z,5.33
2022-08-17T03:52:08.824Z,5.83
2022-08-17T03:54:51.332Z,6.53
2022-08-17T03:57:20.499Z,7.13
2022-08-17T03:59:50.846Z,6.73
2022-08-17T04:02:22.088Z,6.57
2022-08-17T04:04:51.406Z,5.97
2022-08-17T04:07:20.441Z,6.17
2022-08-17T04:09:49.422Z,5.43
2022-08-17T04:12:19.518Z,5.40
2022-08-17T04:14:53.722Z,5.73
2022-08-17T04:17:25.000Z,6.10
2022-08-17T04:19:53.602Z,6.13
2022-08-17T04:22:32.048Z,5.83
2022-08-17T04:25:16.568Z,5.40
2022-08-17T04:27:45.128Z,5.77
2022-08-17T04:30:15.247Z,5.60
2022-08-17T04:33:19.158Z,5.50
2022-08-17T04:35:45.702Z,6.00
2022-08-17T04:38:16.530Z,5.10
2022-08-17T04:41:03.485Z,5.67
2022-08-17T04:43:33.998Z,5.47
2022-08-17T04:46:08.045Z,5.73
2022-08-17T04:48:41.730Z,5.40
2022-08-17T04:51:13.360Z,5.70
2022-08-17T04:53:44.281Z,6.13
2022-08-17T04:56:16.796Z,5.37
2022-08-17T04:58:47.760Z,5.87
2022-08-17T05:01:23.381Z,5.70
2022-08-17T05:03:53.330Z,6.50
2022-08-17T05:06:22.082Z,6.50
2022-08-17T05:08:50.374Z,5.70
2022-08-17T05:11:18.963Z,5.37
2022-08-17T05:13:50.349Z,5.80
2022-08-17T05:16:21.525Z,5.90
2022-08-17T05:18:50.449Z,5.40
2022-08-17T05:21:19.893Z,5.80
2022-08-17T05:23:53.252Z,5.93
2022-08-17T05:26:25.738Z,5.67
2022-08-17T05:29:02.567Z,6.37
2022-08-17T05:31:32.889Z,6.37
2022-08-17T05:34:01.426Z,6.20
2022-08-17T05:36:41.962Z,6.77
2022-08-17T05:39:16.462Z,5.50
2022-08-17T05:41:48.123Z,6.40
2022-08-17T05:44:17.219Z,5.80
2022-08-17T05:46:50.673Z,8.60
2022-08-17T05:49:27.276Z,7.77
2022-08-17T05:52:22.096Z,6.70
2022-08-17T05:55:04.704Z,6.20
2022-08-17T05:58:01.145Z,6.07
2022-08-17T06:00:33.075Z,5.87
2022-08-17T06:03:20.259Z,5.93
2022-08-17T06:06:02.549Z,6.03
2022-08-17T06:08:39.629Z,7.07
2022-08-17T06:11:18.261Z,7.10
2022-08-17T06:14:05.118Z,7.47
2022-08-17T06:16:38.812Z,6.40
2022-08-17T06:19:16.084Z,7.87
2022-08-17T06:21:49.044Z,7.50
2022-08-17T06:24:27.520Z,11.07
2022-08-17T06:26:58.553Z,7.20
2022-08-17T06:29:37.311Z,5.20
2022-08-17T06:32:09.717Z,5.97
2022-08-17T06:34:44.460Z,6.05
2022-08-17T06:37:35.552Z,5.47
2022-08-17T06:40:21.462Z,5.50
2022-08-17T06:43:05.533Z,5.22
2022-08-17T06:45:42.258Z,5.65
2022-08-17T06:48:16.989Z,4.43
2022-08-17T06:50:54.635Z,7.03
2022-08-17T06:53:28.218Z,6.40
2022-08-17T06:56:01.122Z,5.65
2022-08-17T06:58:32.420Z,4.78
2022-08-17T07:01:06.826Z,4.93
2022-08-17T07:03:40.871Z,4.60
2022-08-17T07:06:15.693Z,4.70
2022-08-17T07:08:54.941Z,6.30
2022-08-17T07:11:28.632Z,6.60
2022-08-17T07:14:08.561Z,5.18
2022-08-17T07:16:42.416Z,4.97
2022-08-17T07:19:11.256Z,5.45
2022-08-17T07:21:48.992Z,4.68
2022-08-17T07:24:31.193Z,5.97
2022-08-17T07:27:12.650Z,5.55
2022-08-17T07:29:45.533Z,5.50
2022-08-17T07:32:18.683Z,4.65
2022-08-17T07:35:11.449Z,5.00
2022-08-17T07:37:43.816Z,5.05
2022-08-17T07:40:35.392Z,5.80
2022-08-17T07:43:23.821Z,5.65
2022-08-17T07:46:14.009Z,4.57
2022-08-17T07:48:45.165Z,4.75
2022-08-17T07:51:21.013Z,4.78
2022-08-17T07:53:50.781Z,5.15
2022-08-17T07:56:39.123Z,4.80
2022-08-17T07:59:13.646Z,5.05
2022-08-17T08:01:47.111Z,5.07
2022-08-17T08:04:50.018Z,5.07
2022-08-17T08:07:32.103Z,5.82
2022-08-17T08:10:11.207Z,7.20
2022-08-17T08:12:42.115Z,5.07
2022-08-17T08:15:18.773Z,5.40
2022-08-17T08:17:51.962Z,5.13
2022-08-17T08:20:42.386Z,5.97
2022-08-17T08:23:26.720Z,5.68
2022-08-17T08:26:08.109Z,5.53
2022-08-17T08:28:45.935Z,5.88
2022-08-17T08:31:24.477Z,4.82
2022-08-17T08:34:04.471Z,4.65
2022-08-17T08:37:13.054Z,5.20
2022-08-17T08:39:48.551Z,4.80
2022-08-17T08:42:25.568Z,5.10
2022-08-17T08:45:04.627Z,4.63
2022-08-17T08:47:57.473Z,5.25
2022-08-17T08:50:47.613Z,5.40
2022-08-17T08:53:30.333Z,4.82
2022-08-17T08:56:04.222Z,5.03
2022-08-17T08:58:42.813Z,4.68
2022-08-17T09:01:22.302Z,4.93
2022-08-17T09:04:24.611Z,4.63
2022-08-17T09:07:04.532Z,4.45
2022-08-17T09:09:41.742Z,4.68
2022-08-17T09:12:18.110Z,4.60
2022-08-17T09:14:56.709Z,4.45
2022-08-17T09:17:36.887Z,4.55
2022-08-17T09:20:14.455Z,4.80
2022-08-17T09:23:04.103Z,5.45
2022-08-17T09:25:35.776Z,5.60
2022-08-17T09:28:08.138Z,5.15
2022-08-17T09:30:43.391Z,5.10
2022-08-17T09:33:15.322Z,5.15
2022-08-17T09:35:47.967Z,4.82
2022-08-17T09:38:30.342Z,5.10
2022-08-17T09:41:09.265Z,5.05
2022-08-17T09:43:44.048Z,4.97
2022-08-17T09:46:21.560Z,4.75
2022-08-17T09:48:58.209Z,5.80
2022-08-17T09:51:36.516Z,5.20
2022-08-17T09:54:35.184Z,5.18
2022-08-17T09:57:29.032Z,4.85
2022-08-17T10:00:17.049Z,4.85
2022-08-17T10:03:19.983Z,5.63
2022-08-17T10:05:56.558Z,5.05
2022-08-17T10:08:38.182Z,4.85
2022-08-17T10:11:19.823Z,5.45
2022-08-17T10:13:59.486Z,5.65
2022-08-17T10:16:37.483Z,5.50
2022-08-17T10:19:15.015Z,5.07
2022-08-17T10:22:32.337Z,5.60
2022-08-17T10:25:22.581Z,5.65
2022-08-17T10:27:56.183Z,4.85
2022-08-17T10:30:27.764Z,5.55
2022-08-17T10:32:59.402Z,5.65
2022-08-17T10:35:40.799Z,5.30
2022-08-17T10:38:38.410Z,5.68
2022-08-17T10:41:25.374Z,5.43
2022-08-17T10:44:38.331Z,5.47
2022-08-17T10:47:07.639Z,5.82
2022-08-17T10:49:38.806Z,5.57
2022-08-17T10:52:44.990Z,6.00
2022-08-17T10:55:16.508Z,5.55
2022-08-17T10:57:47.841Z,5.63
2022-08-17T11:00:57.997Z,5.90
2022-08-17T11:03:27.813Z,6.10
2022-08-17T11:06:13.118Z,5.88
2022-08-17T11:09:08.997Z,5.57
2022-08-17T11:12:00.523Z,5.30
2022-08-17T11:14:49.062Z,6.20
2022-08-17T11:17:49.901Z,6.40
2022-08-17T11:20:35.890Z,5.47
2022-08-17T11:23:50.440Z,5.72
2022-08-17T11:26:27.885Z,6.00
2022-08-17T11:29:01.530Z,5.90
2022-08-17T11:31:39.890Z,5.68
2022-08-17T11:34:18.972Z,5.65
2022-08-17T11:37:02.633Z,5.78
2022-08-17T11:39:54.901Z,5.40
2022-08-17T11:42:34.484Z,5.88
2022-08-17T11:45:10.076Z,6.15
2022-08-17T11:48:26.746Z,5.45
2022-08-17T11:51:16.797Z,5.88
2022-08-17T11:56:54.621Z,6.07
2022-08-17T11:59:58.621Z,6.40
2022-08-17T12:02:47.879Z,6.57
2022-08-17T12:05:40.246Z,7.45
2022-08-17T12:08:17.782Z,7.40
2022-08-17T12:11:04.288Z,8.27
2022-08-17T12:13:39.844Z,9.43
2022-08-17T12:16:14.866Z,9.25
2022-08-17T12:18:50.821Z,9.50
2022-08-17T12:21:33.540Z,10.43
2022-08-17T12:24:13.281Z,9.70
2022-08-17T12:26:44.122Z,10.07
2022-08-17T12:29:18.249Z,9.27
2022-08-17T12:32:08.496Z,7.85
2022-08-17T12:34:40.783Z,10.13
2022-08-17T12:37:16.410Z,6.10
2022-08-17T12:39:55.053Z,6.82
2022-08-17T12:42:26.485Z,8.07
2022-08-17T12:44:54.808Z,8.20
2022-08-17T12:47:24.756Z,8.93
2022-08-17T12:50:08.458Z,8.05
2022-08-17T12:53:01.679Z,9.25
2022-08-17T12:55:36.759Z,8.73
2022-08-17T12:58:05.469Z,8.57
2022-08-17T13:00:38.085Z,7.28
2022-08-17T13:03:13.839Z,7.80
2022-08-17T13:05:44.013Z,8.13
2022-08-17T13:08:16.164Z,6.90
2022-08-17T13:10:54.589Z,6.88
2022-08-17T13:13:26.140Z,7.20
2022-08-17T13:15:57.150Z,7.22
2022-08-17T13:18:43.064Z,7.13
2022-08-17T13:21:26.775Z,6.72
2022-08-17T13:23:57.854Z,6.25
2022-08-17T13:26:30.273Z,5.93
2022-08-17T13:28:59.575Z,5.55
2022-08-17T13:31:51.912Z,6.20
2022-08-17T13:34:36.933Z,5.90
2022-08-17T13:37:32.762Z,6.35
2022-08-17T13:40:05.373Z,7.28
2022-08-17T13:42:53.405Z,7.43
2022-08-17T13:45:54.616Z,7.25
2022-08-17T13:48:26.879Z,7.90
2022-08-17T13:51:14.984Z,7.68
2022-08-17T13:53:55.028Z,7.25
2022-08-17T13:56:38.443Z,7.53
2022-08-17T13:59:12.440Z,7.15
2022-08-17T14:01:43.677Z,7.15
2022-08-17T14:04:14.329Z,5.93
2022-08-17T14:06:54.007Z,7.03
2022-08-17T14:09:25.410Z,6.65
2022-08-17T14:11:55.206Z,6.35
2022-08-17T14:14:24.565Z,6.30
2022-08-17T14:16:53.873Z,5.68
2022-08-17T14:19:23.097Z,5.68
2022-08-17T14:21:56.547Z,5.68
2022-08-17T14:24:32.860Z,5.57
2022-08-17T14:27:03.492Z,6.35
2022-08-17T14:29:34.410Z,5.93
2022-08-17T14:32:18.073Z,6.00
2022-08-17T14:34:47.178Z,5.00
2022-08-17T14:37:17.340Z,4.80
2022-08-17T14:39:45.752Z,5.70
2022-08-17T14:42:15.219Z,5.75
2022-08-17T14:44:43.550Z,5.70
2022-08-17T14:47:14.925Z,5.15
2022-08-17T14:49:43.841Z,5.75
2022-08-17T14:52:21.558Z,5.57
2022-08-17T14:54:51.613Z,5.70
2022-08-17T14:57:33.781Z,5.80
2022-08-17T15:00:03.989Z,5.90
2022-08-17T15:02:33.271Z,6.00
2022-08-17T15:05:03.388Z,6.45
2022-08-17T15:07:33.703Z,5.68
2022-08-17T15:10:02.864Z,5.47
2022-08-17T15:12:33.540Z,5.30
2022-08-17T15:15:04.760Z,5.65
2022-08-17T15:17:44.737Z,5.30
2022-08-17T15:20:15.968Z,6.07
2022-08-17T15:22:49.819Z,5.53
2022-08-17T15:25:19.376Z,5.00
2022-08-17T15:27:49.076Z,4.30
2022-08-17T15:30:17.981Z,4.55
2022-08-17T15:32:54.049Z,4.47
2022-08-17T15:35:27.107Z,4.13
2022-08-17T15:38:07.817Z,4.65
2022-08-17T15:40:42.294Z,4.63
2022-08-17T15:43:13.682Z,4.72
2022-08-17T15:45:42.025Z,4.15
2022-08-17T15:48:10.811Z,4.55
2022-08-17T15:50:40.158Z,4.90
2022-08-17T15:53:10.021Z,5.57
2022-08-17T15:55:38.765Z,5.18
2022-08-17T15:58:07.337Z,5.05
2022-08-17T16:00:53.177Z,5.20
2022-08-17T16:03:58.248Z,4.88
2022-08-17T16:06:14.275Z,5.10
2022-08-17T16:08:45.006Z,5.28
2022-08-17T16:11:14.360Z,5.43
2022-08-17T16:13:42.837Z,5.20
2022-08-17T16:16:23.764Z,4.97
2022-08-17T16:18:56.340Z,5.72
2022-08-17T16:21:42.379Z,4.80
2022-08-17T16:24:13.540Z,5.13
2022-08-17T16:26:43.252Z,4.45
2022-08-17T16:29:11.629Z,5.07
2022-08-17T16:31:43.360Z,4.45
2022-08-17T16:34:17.876Z,4.72
2022-08-17T16:36:54.779Z,4.32
2022-08-17T16:39:26.917Z,4.38
2022-08-17T16:41:56.145Z,4.28
2022-08-17T16:44:25.985Z,4.32
2022-08-17T16:46:54.521Z,4.25
2022-08-17T16:49:35.426Z,4.22
2022-08-17T16:52:10.129Z,4.15
2022-08-17T16:54:44.002Z,4.53
2022-08-17T16:57:13.525Z,4.68
2022-08-17T16:59:44.975Z,3.90
2022-08-17T17:02:17.637Z,4.32
2022-08-17T17:04:53.039Z,4.32
2022-08-17T17:07:51.908Z,4.20
2022-08-17T17:10:25.832Z,5.85
2022-08-17T17:13:03.310Z,7.65
2022-08-17T17:15:53.706Z,4.95
2022-08-17T17:18:27.670Z,6.25
2022-08-17T17:20:57.783Z,3.78
2022-08-17T17:23:36.674Z,4.90
2022-08-17T17:26:19.132Z,3.43
2022-08-17T17:28:59.503Z,2.47
2022-08-17T17:31:34.937Z,1.90
2022-08-17T17:34:07.786Z,2.03
2022-08-17T17:36:41.173Z,3.00
2022-08-17T17:39:14.758Z,3.20
2022-08-17T17:41:48.457Z,3.03
2022-08-17T17:44:19.982Z,4.20
2022-08-17T17:46:52.169Z,3.47
2022-08-17T17:49:20.626Z,3.27
2022-08-17T17:52:09.495Z,3.10
2022-08-17T17:54:54.133Z,3.50
2022-08-17T17:57:36.767Z,2.80
2022-08-17T18:00:12.140Z,2.43
2022-08-17T18:02:53.397Z,2.73
2022-08-17T18:05:45.372Z,2.60
2022-08-17T18:08:32.381Z,2.43
2022-08-17T18:11:35.451Z,2.13
2022-08-17T18:14:14.917Z,2.70
2022-08-17T18:16:44.319Z,3.40
2022-08-17T18:19:14.035Z,3.53
2022-08-17T18:21:47.051Z,3.60
2022-08-17T18:24:15.696Z,4.07
2022-08-17T18:26:51.421Z,4.43
2022-08-17T18:29:34.402Z,4.90
2022-08-17T18:32:33.883Z,5.73
2022-08-17T18:35:18.655Z,6.27
2022-08-17T18:37:49.680Z,6.13
2022-08-17T18:40:37.704Z,6.80
2022-08-17T18:43:12.591Z,6.87
2022-08-17T18:45:49.297Z,6.77
2022-08-17T18:48:25.702Z,7.80
2022-08-17T18:50:57.317Z,7.60
2022-08-17T18:53:34.706Z,7.63
2022-08-17T18:56:34.704Z,7.07
2022-08-17T18:59:10.185Z,7.60
2022-08-17T19:01:52.667Z,7.40
2022-08-17T19:04:36.554Z,7.23
2022-08-17T19:07:12.038Z,7.47
2022-08-17T19:09:44.878Z,7.90
2022-08-17T19:12:27.013Z,7.50
2022-08-17T19:14:58.229Z,7.43
2022-08-17T19:17:35.501Z,7.73
2022-08-17T19:20:10.069Z,7.77
2022-08-17T19:22:52.287Z,7.53
2022-08-17T19:25:27.051Z,7.43
2022-08-17T19:28:03.191Z,7.40
2022-08-17T19:30:33.165Z,7.90
2022-08-17T19:33:04.398Z,8.27
2022-08-17T19:35:43.891Z,8.33
2022-08-17T19:38:27.842Z,7.87
2022-08-17T19:41:04.499Z,8.67
2022-08-17T19:43:50.585Z,8.67
2022-08-17T19:46:29.936Z,8.17
2022-08-17T19:49:07.464Z,7.97
2022-08-17T19:51:44.930Z,8.23
2022-08-17T19:54:20.599Z,7.77
2022-08-17T19:57:01.686Z,8.20
2022-08-17T19:59:51.059Z,8.27
2022-08-17T20:02:34.840Z,7.93
2022-08-17T20:05:12.864Z,7.37
2022-08-17T20:07:50.235Z,7.90
2022-08-17T20:10:28.096Z,8.03
2022-08-17T20:13:00.684Z,8.30
2022-08-17T20:15:31.811Z,7.40
2022-08-17T20:18:03.592Z,8.93
2022-08-17T20:20:42.834Z,7.23
2022-08-17T20:23:30.169Z,7.83
2022-08-17T20:26:08.371Z,7.90
2022-08-17T20:28:39.145Z,7.90
2022-08-17T20:31:42.161Z,8.60
2022-08-17T20:34:36.676Z,8.20
2022-08-17T20:37:09.802Z,7.53
2022-08-17T20:39:42.019Z,7.10
2022-08-17T20:42:29.096Z,7.10
2022-08-17T20:44:58.965Z,6.67
2022-08-17T20:47:30.056Z,6.90
2022-08-17T20:50:03.371Z,6.90
2022-08-17T20:53:00.894Z,6.73
2022-08-17T20:55:53.244Z,6.37
2022-08-17T20:58:47.743Z,6.30
2022-08-17T21:01:24.448Z,6.03
2022-08-17T21:03:54.285Z,5.83
2022-08-17T21:06:26.174Z,4.83
2022-08-17T21:08:59.433Z,5.60
2022-08-17T21:12:03.909Z,4.90
2022-08-17T21:14:57.463Z,4.53
2022-08-17T21:17:44.730Z,5.17
2022-08-17T21:20:32.124Z,4.70
2022-08-17T21:23:27.761Z,5.23
2022-08-17T21:26:13.781Z,5.30
2022-08-17T21:29:01.719Z,5.03
2022-08-17T21:31:51.082Z,4.60
2022-08-17T21:34:30.712Z,4.83
2022-08-17T21:37:29.934Z,4.57
2022-08-17T21:40:01.043Z,4.57
2022-08-17T21:42:34.541Z,4.73
2022-08-17T21:45:13.337Z,4.30
2022-08-17T21:47:43.479Z,4.60
2022-08-17T21:50:18.844Z,4.57
2022-08-17T21:52:48.273Z,4.40
2022-08-17T21:55:28.230Z,4.77
2022-08-17T21:58:13.722Z,4.30
2022-08-17T22:00:45.099Z,4.47
2022-08-17T22:03:26.103Z,4.60
2022-08-17T22:05:54.558Z,4.00
2022-08-17T22:08:25.304Z,4.17
2022-08-17T22:11:02.114Z,3.93
2022-08-17T22:13:31.852Z,4.17
2022-08-17T22:16:15.448Z,4.30
2022-08-17T22:18:57.796Z,3.83
2022-08-17T22:21:26.382Z,4.73
2022-08-17T22:24:05.474Z,4.40
2022-08-17T22:27:00.660Z,4.30
2022-08-17T22:29:59.479Z,4.67
2022-08-17T22:32:40.968Z,4.27
2022-08-17T22:35:37.563Z,4.40
2022-08-17T22:38:32.218Z,5.17
2022-08-17T22:41:31.815Z,5.13
2022-08-17T22:44:07.817Z,4.70
2022-08-17T22:46:41.297Z,3.87
2022-08-17T22:49:09.681Z,3.80
2022-08-17T22:51:38.546Z,4.80
2022-08-17T22:54:37.393Z,4.33
2022-08-17T22:57:26.492Z,4.47
2022-08-17T22:59:57.660Z,4.07
2022-08-17T23:02:29.566Z,3.90
2022-08-17T23:05:24.152Z,3.90
2022-08-17T23:07:53.761Z,4.43
2022-08-17T23:10:22.021Z,3.93
2022-08-17T23:12:50.429Z,3.60
2022-08-17T23:15:19.900Z,3.00
2022-08-17T23:17:48.247Z,3.30
2022-08-17T23:20:17.795Z,3.50
2022-08-17T23:22:51.911Z,3.90
2022-08-17T23:25:28.124Z,3.13
2022-08-17T23:27:57.651Z,3.67
2022-08-17T23:30:28.664Z,3.50
2022-08-17T23:32:59.547Z,3.60
2022-08-17T23:35:40.578Z,3.63
2022-08-17T23:38:11.735Z,3.33
2022-08-17T23:40:42.059Z,3.50
2022-08-17T23:43:24.655Z,3.77
2022-08-17T23:45:55.328Z,3.23
2022-08-17T23:48:36.270Z,3.50
2022-08-17T23:51:13.626Z,3.13
2022-08-17T23:53:47.770Z,3.60
2022-08-17T23:56:22.743Z,3.60
2022-08-17T23:58:51.940Z,3.63
